createdAt,value
2023-03-13T00:01:45.194Z,9.93
2023-03-13T00:04:12.025Z,9.95
2023-03-13T00:06:39.953Z,9.99
2023-03-13T00:09:10.871Z,10.01
2023-03-13T00:11:37.699Z,10.03
2023-03-13T00:14:06.387Z,10.04
2023-03-13T00:16:35.469Z,10.06
2023-03-13T00:19:02.368Z,10.08
2023-03-13T00:21:30.177Z,10.09
2023-03-13T00:24:00.104Z,10.10
2023-03-13T00:26:28.518Z,10.12
2023-03-13T00:28:55.948Z,10.14
2023-03-13T00:31:29.683Z,10.18
2023-03-13T00:34:02.160Z,10.21
2023-03-13T00:36:33.097Z,10.20
2023-03-13T00:39:00.185Z,10.22
2023-03-13T00:41:30.668Z,10.22
2023-03-13T00:43:57.738Z,10.21
2023-03-13T00:46:28.164Z,10.20
2023-03-13T00:48:55.394Z,10.20
2023-03-13T00:51:24.110Z,10.20
2023-03-13T00:53:50.984Z,10.18
2023-03-13T00:56:20.025Z,10.19
2023-03-13T00:58:49.093Z,10.19
2023-03-13T01:01:27.109Z,10.19
2023-03-13T01:04:01.083Z,10.18
2023-03-13T01:06:31.371Z,10.17
2023-03-13T01:08:58.714Z,10.16
2023-03-13T01:11:29.702Z,10.17
2023-03-13T01:13:59.934Z,10.18
2023-03-13T01:16:29.725Z,10.19
2023-03-13T01:19:00.972Z,10.20
2023-03-13T01:21:28.550Z,10.21
2023-03-13T01:23:55.889Z,10.22
2023-03-13T01:26:23.833Z,10.22
2023-03-13T01:28:51.407Z,10.22
2023-03-13T01:31:25.196Z,10.24
2023-03-13T01:33:56.363Z,10.25
2023-03-13T01:36:23.816Z,10.26
2023-03-13T01:38:53.595Z,10.26
2023-03-13T01:41:22.350Z,10.27
2023-03-13T01:43:49.284Z,10.27
2023-03-13T01:46:27.777Z,10.29
2023-03-13T01:49:07.878Z,10.30
2023-03-13T01:51:42.359Z,10.31
2023-03-13T01:54:27.123Z,10.30
2023-03-13T01:57:04.335Z,10.32
2023-03-13T01:59:40.576Z,10.32
2023-03-13T02:02:08.687Z,10.32
2023-03-13T02:04:40.031Z,10.33
2023-03-13T02:07:17.231Z,10.33
2023-03-13T02:09:52.005Z,10.33
2023-03-13T02:12:41.797Z,10.34
2023-03-13T02:15:17.036Z,10.34
2023-03-13T02:17:45.761Z,10.32
2023-03-13T02:20:14.902Z,10.30
2023-03-13T02:23:00.883Z,10.33
2023-03-13T02:25:52.373Z,10.30
2023-03-13T02:28:27.055Z,10.30
2023-03-13T02:30:56.835Z,10.30
2023-03-13T02:33:32.763Z,10.29
2023-03-13T02:36:02.249Z,10.29
2023-03-13T02:38:31.948Z,10.28
2023-03-13T02:41:01.590Z,10.29
2023-03-13T02:43:34.406Z,10.32
2023-03-13T02:46:21.842Z,10.30
2023-03-13T02:48:55.310Z,10.30
2023-03-13T02:51:29.596Z,10.29
2023-03-13T02:54:05.073Z,10.23
2023-03-13T02:56:34.714Z,10.21
2023-03-13T02:59:01.497Z,10.22
2023-03-13T03:01:28.294Z,10.22
2023-03-13T03:03:55.266Z,10.23
2023-03-13T03:06:22.060Z,10.23
2023-03-13T03:08:48.862Z,10.24
2023-03-13T03:11:15.773Z,10.25
2023-03-13T03:13:42.847Z,10.23
2023-03-13T03:16:12.738Z,10.24
2023-03-13T03:18:39.651Z,10.23
2023-03-13T03:21:07.305Z,10.22
2023-03-13T03:23:36.484Z,10.24
2023-03-13T03:26:05.035Z,10.24
2023-03-13T03:28:32.262Z,10.23
2023-03-13T03:31:11.552Z,10.25
2023-03-13T03:33:39.672Z,10.23
2023-03-13T03:36:11.000Z,10.23
2023-03-13T03:38:39.737Z,10.24
2023-03-13T03:41:08.124Z,10.24
2023-03-13T03:43:35.557Z,10.25
2023-03-13T03:46:03.043Z,10.25
2023-03-13T03:48:29.950Z,10.26
2023-03-13T03:50:56.993Z,10.26
2023-03-13T03:53:24.266Z,10.26
2023-03-13T03:55:51.097Z,10.27
2023-03-13T03:58:17.879Z,10.26
2023-03-13T04:00:46.634Z,10.26
2023-03-13T04:03:14.387Z,10.26
2023-03-13T04:05:41.256Z,10.26
2023-03-13T04:08:09.003Z,10.28
2023-03-13T04:10:36.324Z,10.29
2023-03-13T04:13:03.122Z,10.30
2023-03-13T04:15:29.948Z,10.30
2023-03-13T04:17:56.780Z,10.30
2023-03-13T04:20:23.605Z,10.30
2023-03-13T04:22:50.544Z,10.31
2023-03-13T04:25:17.874Z,10.31
2023-03-13T04:27:44.675Z,10.31
2023-03-13T04:30:12.348Z,10.32
2023-03-13T04:32:39.224Z,10.32
2023-03-13T04:35:06.407Z,10.33
2023-03-13T04:37:33.210Z,10.34
2023-03-13T04:39:59.979Z,10.35
2023-03-13T04:42:26.757Z,10.35
2023-03-13T04:44:53.581Z,10.38
2023-03-13T04:47:20.469Z,10.39
2023-03-13T04:49:47.251Z,10.40
2023-03-13T04:52:14.044Z,10.42
2023-03-13T04:54:40.809Z,10.43
2023-03-13T04:57:07.587Z,10.45
2023-03-13T04:59:34.407Z,10.47
2023-03-13T05:02:01.213Z,10.48
2023-03-13T05:04:28.008Z,10.49
2023-03-13T05:06:54.820Z,10.50
2023-03-13T05:09:21.643Z,10.51
2023-03-13T05:11:50.310Z,10.54
2023-03-13T05:14:17.144Z,10.55
2023-03-13T05:16:43.920Z,10.58
2023-03-13T05:19:10.725Z,10.59
2023-03-13T05:21:37.502Z,10.62
2023-03-13T05:24:04.590Z,10.64
2023-03-13T05:26:31.350Z,10.67
2023-03-13T05:28:58.188Z,10.69
2023-03-13T05:31:25.015Z,10.72
2023-03-13T05:33:51.815Z,10.75
2023-03-13T05:36:18.590Z,10.78
2023-03-13T05:38:45.799Z,10.81
2023-03-13T05:41:12.607Z,10.82
2023-03-13T05:43:39.377Z,10.86
2023-03-13T05:46:06.204Z,10.87
2023-03-13T05:48:33.034Z,10.91
2023-03-13T05:50:59.793Z,10.93
2023-03-13T05:53:26.732Z,10.96
2023-03-13T05:55:53.561Z,11.00
2023-03-13T05:58:20.344Z,11.02
2023-03-13T06:00:48.641Z,11.04
2023-03-13T06:03:15.432Z,11.07
2023-03-13T06:05:42.282Z,11.09
2023-03-13T06:08:09.111Z,11.11
2023-03-13T06:10:35.922Z,11.15
2023-03-13T06:13:17.156Z,11.17
2023-03-13T06:15:55.783Z,11.18
2023-03-13T06:18:23.461Z,11.19
2023-03-13T06:20:50.720Z,11.21
2023-03-13T06:23:17.522Z,11.23
2023-03-13T06:25:48.457Z,11.27
2023-03-13T06:28:16.053Z,11.30
2023-03-13T06:30:43.281Z,11.31
2023-03-13T06:33:10.599Z,11.35
2023-03-13T06:35:55.092Z,11.38
2023-03-13T06:38:24.304Z,11.40
2023-03-13T06:40:51.161Z,11.44
2023-03-13T06:43:18.322Z,11.47
2023-03-13T06:45:45.142Z,11.51
2023-03-13T06:48:11.960Z,11.54
2023-03-13T06:50:40.206Z,11.59
2023-03-13T06:53:07.387Z,11.63
2023-03-13T06:55:34.250Z,11.66
2023-03-13T06:58:01.036Z,11.69
2023-03-13T07:00:28.132Z,11.74
2023-03-13T07:02:55.375Z,11.78
2023-03-13T07:05:22.146Z,11.81
2023-03-13T07:07:48.996Z,11.83
2023-03-13T07:10:17.026Z,11.87
2023-03-13T07:12:44.458Z,11.90
2023-03-13T07:15:11.587Z,11.92
2023-03-13T07:17:38.507Z,11.94
2023-03-13T07:20:09.707Z,11.97
2023-03-13T07:22:37.856Z,12.01
2023-03-13T07:25:05.838Z,12.04
2023-03-13T07:27:32.724Z,12.05
2023-03-13T07:29:59.520Z,12.09
2023-03-13T07:32:26.377Z,12.12
2023-03-13T07:34:53.395Z,12.16
2023-03-13T07:37:20.155Z,12.22
2023-03-13T07:39:46.943Z,12.27
2023-03-13T07:42:13.783Z,12.32
2023-03-13T07:44:40.585Z,12.38
2023-03-13T07:47:07.786Z,12.43
2023-03-13T07:49:39.306Z,12.47
2023-03-13T07:52:06.115Z,12.51
2023-03-13T07:54:32.906Z,12.55
2023-03-13T07:57:09.212Z,12.59
2023-03-13T07:59:36.091Z,12.61
2023-03-13T08:02:04.293Z,12.65
2023-03-13T08:04:44.714Z,12.69
2023-03-13T08:07:15.130Z,12.71
2023-03-13T08:09:42.116Z,12.77
2023-03-13T08:12:11.633Z,12.81
2023-03-13T08:14:38.417Z,12.88
2023-03-13T08:17:08.372Z,12.94
2023-03-13T08:19:35.285Z,12.99
2023-03-13T08:22:02.926Z,13.04
2023-03-13T08:24:32.800Z,13.08
2023-03-13T08:26:59.730Z,13.12
2023-03-13T08:29:26.587Z,13.17
2023-03-13T08:31:53.537Z,13.20
2023-03-13T08:34:20.847Z,13.26
2023-03-13T08:36:52.753Z,13.31
2023-03-13T08:39:21.127Z,13.36
2023-03-13T08:41:48.438Z,13.42
2023-03-13T08:44:18.366Z,13.47
2023-03-13T08:46:45.477Z,13.50
2023-03-13T08:49:13.381Z,13.53
2023-03-13T08:51:43.756Z,13.58
2023-03-13T08:54:10.804Z,13.60
2023-03-13T08:56:37.751Z,13.63
2023-03-13T08:59:10.023Z,13.66
2023-03-13T09:01:40.031Z,13.69
2023-03-13T09:04:07.677Z,13.71
2023-03-13T09:06:39.158Z,13.75
2023-03-13T09:09:07.579Z,13.77
2023-03-13T09:11:36.546Z,13.81
2023-03-13T09:14:07.422Z,13.85
2023-03-13T09:16:34.956Z,13.89
2023-03-13T09:19:05.182Z,13.95
2023-03-13T09:31:48.468Z,14.19
2023-03-13T09:42:51.078Z,14.46
2023-03-13T09:49:33.862Z,14.55
2023-03-13T09:56:52.382Z,14.66
2023-03-13T10:00:39.953Z,14.70
2023-03-13T10:10:17.351Z,14.87
2023-03-13T10:12:49.543Z,14.92
2023-03-13T10:16:06.253Z,14.98
2023-03-13T10:19:35.684Z,15.04
2023-03-13T10:22:43.793Z,15.07
2023-03-13T10:26:34.203Z,15.13
2023-03-13T10:29:30.339Z,15.18
2023-03-13T10:32:36.842Z,15.23
2023-03-13T10:35:37.722Z,15.29
2023-03-13T10:38:17.258Z,15.38
2023-03-13T10:41:18.842Z,15.45
2023-03-13T10:44:09.279Z,15.55
2023-03-13T10:46:50.505Z,15.67
2023-03-13T10:49:54.534Z,15.86
2023-03-13T10:55:32.818Z,16.04
2023-03-13T10:58:06.558Z,16.08
2023-03-13T11:00:41.198Z,16.17
2023-03-13T11:03:40.325Z,16.23
2023-03-13T11:09:43.042Z,16.38
2023-03-13T11:12:45.784Z,16.49
2023-03-13T11:15:38.657Z,16.60
2023-03-13T11:18:33.574Z,16.73
2023-03-13T11:21:31.007Z,16.88
2023-03-13T11:24:43.403Z,17.00
2023-03-13T11:28:11.059Z,17.13
2023-03-13T11:31:08.282Z,17.24
2023-03-13T11:34:21.554Z,17.38
2023-03-13T11:37:02.314Z,17.56
2023-03-13T11:40:16.432Z,17.64
2023-03-13T11:43:25.325Z,17.70
2023-03-13T11:46:26.822Z,17.82
2023-03-13T11:49:21.871Z,17.98
2023-03-13T11:52:29.410Z,18.11
2023-03-13T11:55:02.485Z,18.19
2023-03-13T11:57:40.521Z,18.28
2023-03-13T12:01:01.561Z,18.37
2023-03-13T12:03:52.979Z,18.46
2023-03-13T12:06:38.279Z,18.50
2023-03-13T12:09:17.231Z,18.55
2023-03-13T12:11:55.464Z,18.65
2023-03-13T12:14:31.529Z,18.76
2023-03-13T12:17:06.574Z,18.89
2023-03-13T12:19:42.173Z,18.97
2023-03-13T12:22:39.157Z,19.02
2023-03-13T12:25:33.566Z,19.14
2023-03-13T12:28:24.156Z,19.23
2023-03-13T12:31:31.781Z,19.27
2023-03-13T12:34:28.002Z,19.28
2023-03-13T12:37:02.776Z,19.26
2023-03-13T12:39:52.592Z,19.19
2023-03-13T12:42:46.068Z,19.16
2023-03-13T12:45:24.250Z,19.18
2023-03-13T12:48:41.858Z,19.24
2023-03-13T12:51:40.556Z,19.24
2023-03-13T12:54:36.720Z,19.21
2023-03-13T12:57:31.751Z,19.22
2023-03-13T13:00:10.856Z,19.20
2023-03-13T13:02:38.132Z,19.25
2023-03-13T13:05:05.647Z,19.28
2023-03-13T13:07:35.757Z,19.26
2023-03-13T13:10:11.867Z,19.25
2023-03-13T13:12:47.106Z,19.26
2023-03-13T13:15:27.481Z,19.28
2023-03-13T13:18:25.244Z,19.37
2023-03-13T13:21:06.878Z,19.45
2023-03-13T13:23:46.915Z,19.49
2023-03-13T13:26:29.610Z,19.50
2023-03-13T13:29:22.316Z,19.49
2023-03-13T13:31:51.801Z,19.50
2023-03-13T13:34:31.028Z,19.51
2023-03-13T13:37:25.608Z,19.52
2023-03-13T13:39:54.182Z,19.54
2023-03-13T13:42:32.824Z,19.61
2023-03-13T13:45:01.060Z,19.67
2023-03-13T13:47:33.441Z,19.79
2023-03-13T13:50:01.138Z,19.84
2023-03-13T13:52:39.810Z,19.89
2023-03-13T13:55:26.468Z,19.89
2023-03-13T13:58:24.640Z,19.91
2023-03-13T14:00:59.341Z,19.88
2023-03-13T14:03:32.910Z,19.87
2023-03-13T14:06:17.813Z,19.89
2023-03-13T14:08:46.976Z,19.90
2023-03-13T14:11:38.827Z,19.95
2023-03-13T14:14:20.029Z,20.00
2023-03-13T14:16:57.170Z,20.03
2023-03-13T14:19:39.206Z,20.09
2023-03-13T14:22:12.178Z,20.13
2023-03-13T14:24:46.515Z,20.15
2023-03-13T14:27:18.454Z,20.11
2023-03-13T14:30:11.936Z,20.16
2023-03-13T14:32:52.608Z,20.24
2023-03-13T14:35:23.365Z,20.28
2023-03-13T14:37:55.888Z,20.32
2023-03-13T14:40:29.886Z,20.34
2023-03-13T14:43:02.261Z,20.27
2023-03-13T14:45:35.479Z,20.21
2023-03-13T14:48:10.229Z,20.16
2023-03-13T14:50:37.033Z,20.12
2023-03-13T14:53:12.836Z,20.12
2023-03-13T14:55:41.111Z,20.08
2023-03-13T14:58:20.136Z,20.07
2023-03-13T15:00:48.882Z,20.02
2023-03-13T15:03:20.222Z,19.97
2023-03-13T15:06:07.455Z,19.89
2023-03-13T15:08:37.960Z,19.80
2023-03-13T15:11:28.687Z,19.72
2023-03-13T15:13:56.608Z,19.68
2023-03-13T15:16:24.707Z,19.68
2023-03-13T15:18:53.633Z,19.68
2023-03-13T15:21:30.232Z,19.71
2023-03-13T15:24:03.472Z,19.73
2023-03-13T15:26:30.409Z,19.72
2023-03-13T15:28:57.370Z,19.74
2023-03-13T15:31:28.166Z,19.72
2023-03-13T15:33:59.226Z,19.73
2023-03-13T15:36:28.443Z,19.72
2023-03-13T15:38:56.606Z,19.72
2023-03-13T15:41:24.087Z,19.71
2023-03-13T15:43:52.658Z,19.73
2023-03-13T15:46:23.420Z,19.72
2023-03-13T15:48:54.024Z,19.71
2023-03-13T15:51:20.983Z,19.70
2023-03-13T15:53:47.977Z,19.68
2023-03-13T15:56:18.690Z,19.65
2023-03-13T15:58:47.845Z,19.61
2023-03-13T16:01:17.375Z,19.56
2023-03-13T16:03:44.611Z,19.55
2023-03-13T16:06:20.683Z,19.53
2023-03-13T16:08:47.702Z,19.48
2023-03-13T16:11:16.777Z,19.44
2023-03-13T16:13:43.968Z,19.42
2023-03-13T16:16:20.584Z,19.37
2023-03-13T16:18:53.888Z,19.31
2023-03-13T16:21:25.792Z,19.26
2023-03-13T16:23:53.255Z,19.19
2023-03-13T16:26:27.661Z,19.15
2023-03-13T16:28:55.191Z,19.05
2023-03-13T16:31:28.477Z,19.03
2023-03-13T16:33:56.635Z,18.97
2023-03-13T16:36:31.223Z,18.95
2023-03-13T16:39:05.441Z,18.94
2023-03-13T16:41:32.916Z,18.90
2023-03-13T16:43:59.742Z,18.87
2023-03-13T16:46:37.881Z,18.85
2023-03-13T16:49:06.116Z,18.82
2023-03-13T16:51:33.289Z,18.81
2023-03-13T16:54:00.620Z,18.80
2023-03-13T16:56:37.216Z,18.78
2023-03-13T16:59:10.159Z,18.76
2023-03-13T17:01:36.957Z,18.71
2023-03-13T17:04:04.387Z,18.70
2023-03-13T17:06:42.144Z,18.67
2023-03-13T17:09:16.305Z,18.65
2023-03-13T17:11:44.144Z,18.62
2023-03-13T17:14:11.655Z,18.60
2023-03-13T17:16:45.822Z,18.57
2023-03-13T17:19:14.332Z,18.52
2023-03-13T17:21:41.149Z,18.48
2023-03-13T17:24:08.261Z,18.46
2023-03-13T17:26:38.433Z,18.43
2023-03-13T17:29:07.029Z,18.41
2023-03-13T17:31:38.453Z,18.37
2023-03-13T17:34:07.203Z,18.34
2023-03-13T17:36:35.457Z,18.31
2023-03-13T17:39:05.618Z,18.28
2023-03-13T17:41:38.058Z,18.23
2023-03-13T17:44:07.723Z,18.19
2023-03-13T17:46:47.385Z,18.17
2023-03-13T17:49:17.368Z,18.13
2023-03-13T17:51:46.255Z,18.08
2023-03-13T17:54:15.650Z,18.05
2023-03-13T17:56:44.272Z,18.03
2023-03-13T17:59:17.156Z,18.00
2023-03-13T18:01:44.959Z,17.98
2023-03-13T18:04:12.998Z,17.94
2023-03-13T18:06:45.151Z,17.93
2023-03-13T18:09:16.792Z,17.86
2023-03-13T18:11:43.772Z,17.79
2023-03-13T18:14:11.359Z,17.73
2023-03-13T18:16:47.410Z,17.66
2023-03-13T18:19:22.464Z,17.59
2023-03-13T18:21:52.436Z,17.53
2023-03-13T18:24:20.031Z,17.46
2023-03-13T18:26:49.511Z,17.41
2023-03-13T18:29:26.339Z,17.34
2023-03-13T18:31:55.505Z,17.27
2023-03-13T18:34:23.775Z,17.22
2023-03-13T18:36:51.348Z,17.15
2023-03-13T18:39:19.964Z,17.11
2023-03-13T18:41:48.969Z,17.06
2023-03-13T18:44:18.816Z,17.00
2023-03-13T18:46:45.866Z,16.94
2023-03-13T18:49:24.584Z,16.92
2023-03-13T18:51:53.909Z,16.88
2023-03-13T18:54:20.778Z,16.85
2023-03-13T18:56:47.867Z,16.83
2023-03-13T18:59:20.624Z,16.80
2023-03-13T19:01:48.410Z,16.76
2023-03-13T19:04:16.371Z,16.73
2023-03-13T19:06:45.763Z,16.70
2023-03-13T19:09:41.713Z,16.69
2023-03-13T19:12:05.794Z,16.68
2023-03-13T19:14:33.250Z,16.66
2023-03-13T19:17:00.014Z,16.65
2023-03-13T19:19:26.945Z,16.65
2023-03-13T19:21:56.152Z,16.64
2023-03-13T19:24:26.491Z,16.61
2023-03-13T19:26:58.564Z,16.60
2023-03-13T19:29:27.866Z,16.56
2023-03-13T19:31:55.129Z,16.53
2023-03-13T19:34:22.049Z,16.50
2023-03-13T19:36:50.301Z,16.44
2023-03-13T19:39:25.438Z,16.41
2023-03-13T19:41:54.272Z,16.36
2023-03-13T19:44:21.749Z,16.32
2023-03-13T19:46:48.958Z,16.29
2023-03-13T19:49:18.802Z,16.26
2023-03-13T19:51:46.305Z,16.23
2023-03-13T19:54:13.658Z,16.19
2023-03-13T19:56:46.868Z,16.17
2023-03-13T19:59:26.742Z,16.15
2023-03-13T20:01:55.636Z,16.09
2023-03-13T20:04:22.700Z,16.08
2023-03-13T20:06:49.556Z,16.07
2023-03-13T20:09:17.977Z,16.06
2023-03-13T20:11:45.226Z,16.06
2023-03-13T20:14:12.436Z,16.05
2023-03-13T20:16:39.428Z,16.05
2023-03-13T20:19:06.396Z,16.03
2023-03-13T20:21:36.595Z,16.03
2023-03-13T20:24:03.926Z,15.98
2023-03-13T20:26:30.899Z,15.97
2023-03-13T20:28:58.313Z,15.96
2023-03-13T20:31:29.069Z,15.95
2023-03-13T20:33:57.887Z,15.95
2023-03-13T20:36:25.374Z,15.89
2023-03-13T20:38:52.772Z,15.89
2023-03-13T20:41:25.151Z,15.87
2023-03-13T20:43:52.800Z,15.82
2023-03-13T20:46:20.535Z,15.83
2023-03-13T20:48:47.393Z,15.78
2023-03-13T20:51:14.438Z,15.79
2023-03-13T20:53:42.520Z,15.74
2023-03-13T20:56:11.402Z,15.72
2023-03-13T20:58:38.902Z,15.71
2023-03-13T21:01:07.535Z,15.67
2023-03-13T21:03:35.920Z,15.66
2023-03-13T21:06:16.322Z,15.65
2023-03-13T21:08:45.565Z,15.63
2023-03-13T21:11:22.025Z,15.63
2023-03-13T21:13:50.069Z,15.61
2023-03-13T21:16:18.542Z,15.60
2023-03-13T21:18:46.322Z,15.58
2023-03-13T21:21:19.029Z,15.57
2023-03-13T21:23:46.877Z,15.55
2023-03-13T21:26:14.806Z,15.54
2023-03-13T21:28:41.919Z,15.52
2023-03-13T21:31:19.629Z,15.50
2023-03-13T21:33:47.231Z,15.47
2023-03-13T21:36:16.480Z,15.45
2023-03-13T21:38:44.578Z,15.44
2023-03-13T21:41:14.654Z,15.44
2023-03-13T21:43:42.815Z,15.45
2023-03-13T21:46:12.384Z,15.44
2023-03-13T21:48:40.728Z,15.45
2023-03-13T21:51:09.152Z,15.46
2023-03-13T21:53:36.804Z,15.44
2023-03-13T21:56:04.372Z,15.43
2023-03-13T21:58:31.311Z,15.40
2023-03-13T22:00:59.298Z,15.39
2023-03-13T22:03:26.659Z,15.36
2023-03-13T22:05:53.592Z,15.35
2023-03-13T22:08:20.498Z,15.33
2023-03-13T22:10:49.223Z,15.29
2023-03-13T22:13:17.337Z,15.29
2023-03-13T22:15:46.408Z,15.26
2023-03-13T22:18:15.340Z,15.22
2023-03-13T22:20:43.103Z,15.20
2023-03-13T22:23:11.515Z,15.17
2023-03-13T22:25:40.402Z,15.15
2023-03-13T22:28:07.402Z,15.11
2023-03-13T22:30:34.988Z,15.07
2023-03-13T22:33:03.791Z,15.03
2023-03-13T22:35:30.562Z,15.00
2023-03-13T22:37:57.352Z,14.95
2023-03-13T22:40:24.177Z,14.91
2023-03-13T22:42:51.677Z,14.89
2023-03-13T22:45:19.178Z,14.86
2023-03-13T22:47:46.031Z,14.83
2023-03-13T22:50:13.492Z,14.79
2023-03-13T22:52:40.677Z,14.77
2023-03-13T22:55:08.191Z,14.76
2023-03-13T22:57:35.034Z,14.74
2023-03-13T23:00:01.940Z,14.71
2023-03-13T23:02:29.158Z,14.70
2023-03-13T23:04:58.341Z,14.67
2023-03-13T23:07:28.423Z,14.66
2023-03-13T23:09:56.025Z,14.62
2023-03-13T23:12:24.274Z,14.61
2023-03-13T23:14:52.217Z,14.59
2023-03-13T23:17:19.079Z,14.58
2023-03-13T23:19:45.916Z,14.57
2023-03-13T23:22:17.639Z,14.57
2023-03-13T23:24:44.737Z,14.54
2023-03-13T23:27:11.794Z,14.56
2023-03-13T23:29:38.745Z,14.57
2023-03-13T23:32:05.642Z,14.55
2023-03-13T23:34:32.567Z,14.54
2023-03-13T23:36:59.652Z,14.54
2023-03-13T23:39:26.456Z,14.52
2023-03-13T23:41:53.237Z,14.51
2023-03-13T23:44:22.700Z,14.52
2023-03-13T23:46:49.541Z,14.52
2023-03-13T23:49:16.511Z,14.51
2023-03-13T23:51:43.358Z,14.51
2023-03-13T23:54:10.157Z,14.50
2023-03-13T23:56:39.912Z,14.49
2023-03-13T23:59:06.864Z,14.47
